sensor_id;sensor_type;location;lat;lon;timestamp;P1;durP1;ratioP1;P2;durP2;ratioP2
35602;SDS011;21725;50.836;4.368;2022-10-19T00:01:21;10.55;;;3.97;;
35602;SDS011;21725;50.836;4.368;2022-10-19T00:03:51;21.85;;;5.70;;
35602;SDS011;21725;50.836;4.368;2022-10-19T00:06:35;12.25;;;4.25;;
35602;SDS011;21725;50.836;4.368;2022-10-19T00:09:08;8.98;;;3.85;;
35602;SDS011;21725;50.836;4.368;2022-10-19T00:11:38;16.00;;;5.82;;
35602;SDS011;21725;50.836;4.368;2022-10-19T00:14:18;15.85;;;3.88;;
35602;SDS011;21725;50.836;4.368;2022-10-19T00:16:52;14.00;;;4.35;;
35602;SDS011;21725;50.836;4.368;2022-10-19T00:19:24;14.27;;;4.25;;
35602;SDS011;21725;50.836;4.368;2022-10-19T00:21:58;15.63;;;4.82;;
35602;SDS011;21725;50.836;4.368;2022-10-19T00:24:58;13.45;;;4.78;;
35602;SDS011;21725;50.836;4.368;2022-10-19T00:27:26;13.32;;;4.30;;
35602;SDS011;21725;50.836;4.368;2022-10-19T00:29:55;12.45;;;3.88;;
35602;SDS011;21725;50.836;4.368;2022-10-19T00:32:50;13.95;;;3.35;;
35602;SDS011;21725;50.836;4.368;2022-10-19T00:35:38;14.07;;;4.40;;
35602;SDS011;21725;50.836;4.368;2022-10-19T00:38:14;20.17;;;4.18;;
35602;SDS011;21725;50.836;4.368;2022-10-19T00:41:02;13.15;;;5.05;;
35602;SDS011;21725;50.836;4.368;2022-10-19T00:43:48;16.27;;;4.13;;
35602;SDS011;21725;50.836;4.368;2022-10-19T00:46:44;11.43;;;3.92;;
35602;SDS011;21725;50.836;4.368;2022-10-19T00:52:13;11.65;;;4.13;;
35602;SDS011;21725;50.836;4.368;2022-10-19T00:54:49;10.93;;;5.10;;
35602;SDS011;21725;50.836;4.368;2022-10-19T00:57:50;12.80;;;4.75;;
35602;SDS011;21725;50.836;4.368;2022-10-19T01:00:27;11.93;;;3.28;;
35602;SDS011;21725;50.836;4.368;2022-10-19T01:03:02;14.18;;;4.80;;
35602;SDS011;21725;50.836;4.368;2022-10-19T01:05:39;25.45;;;6.38;;
35602;SDS011;21725;50.836;4.368;2022-10-19T01:08:18;12.77;;;4.53;;
35602;SDS011;21725;50.836;4.368;2022-10-19T01:21:47;10.82;;;4.32;;
35602;SDS011;21725;50.836;4.368;2022-10-19T01:27:26;13.85;;;4.10;;
35602;SDS011;21725;50.836;4.368;2022-10-19T01:30:23;15.10;;;4.28;;
35602;SDS011;21725;50.836;4.368;2022-10-19T01:33:20;9.35;;;3.30;;
35602;SDS011;21725;50.836;4.368;2022-10-19T01:39:07;13.52;;;4.70;;
35602;SDS011;21725;50.836;4.368;2022-10-19T01:41:59;10.73;;;3.60;;
35602;SDS011;21725;50.836;4.368;2022-10-19T01:48:00;19.35;;;4.60;;
35602;SDS011;21725;50.836;4.368;2022-10-19T01:50:36;9.68;;;3.88;;
35602;SDS011;21725;50.836;4.368;2022-10-19T01:53:25;12.00;;;4.47;;
35602;SDS011;21725;50.836;4.368;2022-10-19T01:56:08;12.40;;;4.95;;
35602;SDS011;21725;50.836;4.368;2022-10-19T01:58:40;11.85;;;4.53;;
35602;SDS011;21725;50.836;4.368;2022-10-19T02:01:16;18.40;;;4.50;;
35602;SDS011;21725;50.836;4.368;2022-10-19T02:03:59;9.68;;;4.05;;
35602;SDS011;21725;50.836;4.368;2022-10-19T02:06:28;12.80;;;5.20;;
35602;SDS011;21725;50.836;4.368;2022-10-19T02:11:41;14.93;;;4.80;;
35602;SDS011;21725;50.836;4.368;2022-10-19T02:14:19;11.75;;;5.47;;
35602;SDS011;21725;50.836;4.368;2022-10-19T02:16:56;26.63;;;5.93;;
35602;SDS011;21725;50.836;4.368;2022-10-19T02:19:35;12.93;;;4.15;;
35602;SDS011;21725;50.836;4.368;2022-10-19T02:22:10;15.00;;;4.55;;
35602;SDS011;21725;50.836;4.368;2022-10-19T02:24:40;14.38;;;6.68;;
35602;SDS011;21725;50.836;4.368;2022-10-19T02:27:15;22.63;;;6.30;;
35602;SDS011;21725;50.836;4.368;2022-10-19T02:29:46;6.70;;;3.35;;
35602;SDS011;21725;50.836;4.368;2022-10-19T02:32:15;12.38;;;5.63;;
35602;SDS011;21725;50.836;4.368;2022-10-19T02:34:57;14.95;;;4.70;;
35602;SDS011;21725;50.836;4.368;2022-10-19T02:37:36;13.70;;;5.38;;
35602;SDS011;21725;50.836;4.368;2022-10-19T02:40:15;14.07;;;4.78;;
35602;SDS011;21725;50.836;4.368;2022-10-19T02:42:57;12.82;;;5.47;;
35602;SDS011;21725;50.836;4.368;2022-10-19T02:45:34;15.77;;;5.10;;
35602;SDS011;21725;50.836;4.368;2022-10-19T02:48:10;17.20;;;6.20;;
35602;SDS011;21725;50.836;4.368;2022-10-19T02:50:50;17.08;;;6.22;;
35602;SDS011;21725;50.836;4.368;2022-10-19T02:53:28;16.25;;;6.32;;
35602;SDS011;21725;50.836;4.368;2022-10-19T02:55:54;10.98;;;6.65;;
35602;SDS011;21725;50.836;4.368;2022-10-19T02:58:25;10.18;;;4.75;;
35602;SDS011;21725;50.836;4.368;2022-10-19T03:00:54;14.65;;;6.38;;
35602;SDS011;21725;50.836;4.368;2022-10-19T03:03:28;14.73;;;5.68;;
35602;SDS011;21725;50.836;4.368;2022-10-19T03:06:04;15.30;;;5.45;;
35602;SDS011;21725;50.836;4.368;2022-10-19T03:08:39;18.95;;;5.25;;
35602;SDS011;21725;50.836;4.368;2022-10-19T03:11:10;17.15;;;5.93;;
35602;SDS011;21725;50.836;4.368;2022-10-19T03:13:42;18.25;;;7.15;;
35602;SDS011;21725;50.836;4.368;2022-10-19T03:16:12;17.33;;;6.17;;
35602;SDS011;21725;50.836;4.368;2022-10-19T03:18:41;18.65;;;5.57;;
35602;SDS011;21725;50.836;4.368;2022-10-19T03:21:25;15.75;;;6.57;;
35602;SDS011;21725;50.836;4.368;2022-10-19T03:23:54;17.95;;;6.90;;
35602;SDS011;21725;50.836;4.368;2022-10-19T03:26:37;17.05;;;6.65;;
35602;SDS011;21725;50.836;4.368;2022-10-19T03:29:17;16.50;;;6.43;;
35602;SDS011;21725;50.836;4.368;2022-10-19T03:31:47;15.85;;;5.78;;
35602;SDS011;21725;50.836;4.368;2022-10-19T03:34:21;18.05;;;5.68;;
35602;SDS011;21725;50.836;4.368;2022-10-19T03:36:49;20.58;;;6.28;;
35602;SDS011;21725;50.836;4.368;2022-10-19T03:39:29;15.27;;;7.35;;
35602;SDS011;21725;50.836;4.368;2022-10-19T03:42:01;21.17;;;6.78;;
35602;SDS011;21725;50.836;4.368;2022-10-19T03:44:33;14.90;;;5.90;;
35602;SDS011;21725;50.836;4.368;2022-10-19T03:47:03;19.90;;;6.10;;
35602;SDS011;21725;50.836;4.368;2022-10-19T03:49:49;18.02;;;6.30;;
35602;SDS011;21725;50.836;4.368;2022-10-19T03:52:44;23.23;;;7.97;;
35602;SDS011;21725;50.836;4.368;2022-10-19T03:55:15;13.03;;;5.47;;
35602;SDS011;21725;50.836;4.368;2022-10-19T03:57:46;14.73;;;6.22;;
35602;SDS011;21725;50.836;4.368;2022-10-19T04:00:15;19.80;;;6.22;;
35602;SDS011;21725;50.836;4.368;2022-10-19T04:02:55;17.40;;;6.80;;
35602;SDS011;21725;50.836;4.368;2022-10-19T04:05:31;11.75;;;6.68;;
35602;SDS011;21725;50.836;4.368;2022-10-19T04:08:00;18.95;;;7.40;;
35602;SDS011;21725;50.836;4.368;2022-10-19T04:10:29;18.10;;;6.55;;
35602;SDS011;21725;50.836;4.368;2022-10-19T04:13:01;18.33;;;6.30;;
35602;SDS011;21725;50.836;4.368;2022-10-19T04:15:37;18.25;;;7.95;;
35602;SDS011;21725;50.836;4.368;2022-10-19T04:18:06;15.93;;;6.57;;
35602;SDS011;21725;50.836;4.368;2022-10-19T04:20:34;18.23;;;7.57;;
35602;SDS011;21725;50.836;4.368;2022-10-19T04:23:07;15.13;;;6.82;;
35602;SDS011;21725;50.836;4.368;2022-10-19T04:25:36;13.13;;;6.22;;
35602;SDS011;21725;50.836;4.368;2022-10-19T04:28:06;16.10;;;6.65;;
35602;SDS011;21725;50.836;4.368;2022-10-19T04:30:48;20.90;;;7.25;;
35602;SDS011;21725;50.836;4.368;2022-10-19T04:33:17;20.45;;;7.95;;
35602;SDS011;21725;50.836;4.368;2022-10-19T04:36:00;19.35;;;8.13;;
35602;SDS011;21725;50.836;4.368;2022-10-19T04:38:36;20.13;;;7.50;;
35602;SDS011;21725;50.836;4.368;2022-10-19T04:41:08;19.13;;;7.53;;
35602;SDS011;21725;50.836;4.368;2022-10-19T04:43:47;22.40;;;9.43;;
35602;SDS011;21725;50.836;4.368;2022-10-19T04:46:17;18.80;;;6.80;;
35602;SDS011;21725;50.836;4.368;2022-10-19T04:48:48;27.75;;;8.25;;
35602;SDS011;21725;50.836;4.368;2022-10-19T04:51:15;16.40;;;7.97;;
35602;SDS011;21725;50.836;4.368;2022-10-19T04:53:52;18.40;;;7.80;;
35602;SDS011;21725;50.836;4.368;2022-10-19T04:56:39;18.52;;;7.05;;
35602;SDS011;21725;50.836;4.368;2022-10-19T04:59:20;16.67;;;6.97;;
35602;SDS011;21725;50.836;4.368;2022-10-19T05:01:55;17.38;;;9.35;;
35602;SDS011;21725;50.836;4.368;2022-10-19T05:04:23;17.75;;;7.45;;
35602;SDS011;21725;50.836;4.368;2022-10-19T05:06:51;19.92;;;8.32;;
35602;SDS011;21725;50.836;4.368;2022-10-19T05:09:26;18.60;;;7.28;;
35602;SDS011;21725;50.836;4.368;2022-10-19T05:12:00;15.95;;;8.20;;
35602;SDS011;21725;50.836;4.368;2022-10-19T05:14:36;23.55;;;7.30;;
35602;SDS011;21725;50.836;4.368;2022-10-19T05:17:05;19.67;;;8.57;;
35602;SDS011;21725;50.836;4.368;2022-10-19T05:19:45;18.80;;;8.20;;
35602;SDS011;21725;50.836;4.368;2022-10-19T05:22:24;14.88;;;5.55;;
35602;SDS011;21725;50.836;4.368;2022-10-19T05:24:57;21.98;;;8.10;;
35602;SDS011;21725;50.836;4.368;2022-10-19T05:27:26;22.50;;;8.82;;
35602;SDS011;21725;50.836;4.368;2022-10-19T05:29:53;13.10;;;7.53;;
35602;SDS011;21725;50.836;4.368;2022-10-19T05:35:21;22.88;;;8.10;;
35602;SDS011;21725;50.836;4.368;2022-10-19T05:37:53;18.05;;;8.70;;
35602;SDS011;21725;50.836;4.368;2022-10-19T05:40:43;23.13;;;8.85;;
35602;SDS011;21725;50.836;4.368;2022-10-19T05:43:13;18.63;;;8.65;;
35602;SDS011;21725;50.836;4.368;2022-10-19T05:45:47;22.17;;;8.50;;
35602;SDS011;21725;50.836;4.368;2022-10-19T05:48:19;16.65;;;9.10;;
35602;SDS011;21725;50.836;4.368;2022-10-19T05:50:56;19.67;;;8.32;;
35602;SDS011;21725;50.836;4.368;2022-10-19T05:53:36;12.63;;;8.38;;
35602;SDS011;21725;50.836;4.368;2022-10-19T05:56:06;17.33;;;9.63;;
35602;SDS011;21725;50.836;4.368;2022-10-19T05:58:33;21.20;;;8.90;;
35602;SDS011;21725;50.836;4.368;2022-10-19T06:01:13;15.40;;;7.65;;
35602;SDS011;21725;50.836;4.368;2022-10-19T06:04:02;16.45;;;7.45;;
35602;SDS011;21725;50.836;4.368;2022-10-19T06:06:42;20.92;;;8.70;;
35602;SDS011;21725;50.836;4.368;2022-10-19T06:09:21;21.10;;;9.85;;
35602;SDS011;21725;50.836;4.368;2022-10-19T06:11:56;18.52;;;9.68;;
35602;SDS011;21725;50.836;4.368;2022-10-19T06:14:24;23.17;;;8.45;;
35602;SDS011;21725;50.836;4.368;2022-10-19T06:16:50;21.15;;;9.13;;
35602;SDS011;21725;50.836;4.368;2022-10-19T06:19:19;20.98;;;8.77;;
35602;SDS011;21725;50.836;4.368;2022-10-19T06:21:51;17.95;;;8.75;;
35602;SDS011;21725;50.836;4.368;2022-10-19T06:24:19;14.85;;;8.35;;
35602;SDS011;21725;50.836;4.368;2022-10-19T06:26:56;39.78;;;10.07;;
35602;SDS011;21725;50.836;4.368;2022-10-19T06:29:22;22.13;;;8.70;;
35602;SDS011;21725;50.836;4.368;2022-10-19T06:31:51;17.88;;;9.02;;
35602;SDS011;21725;50.836;4.368;2022-10-19T06:34:20;21.15;;;10.05;;
35602;SDS011;21725;50.836;4.368;2022-10-19T06:36:46;35.75;;;10.80;;
35602;SDS011;21725;50.836;4.368;2022-10-19T06:39:29;20.50;;;9.23;;
35602;SDS011;21725;50.836;4.368;2022-10-19T06:42:01;15.85;;;8.18;;
35602;SDS011;21725;50.836;4.368;2022-10-19T06:44:30;20.77;;;8.48;;
35602;SDS011;21725;50.836;4.368;2022-10-19T06:47:02;24.20;;;10.27;;
35602;SDS011;21725;50.836;4.368;2022-10-19T06:49:34;19.15;;;9.23;;
35602;SDS011;21725;50.836;4.368;2022-10-19T06:52:12;21.83;;;9.43;;
35602;SDS011;21725;50.836;4.368;2022-10-19T06:54:41;23.42;;;9.30;;
35602;SDS011;21725;50.836;4.368;2022-10-19T06:57:15;22.15;;;9.05;;
35602;SDS011;21725;50.836;4.368;2022-10-19T07:00:02;21.55;;;10.00;;
35602;SDS011;21725;50.836;4.368;2022-10-19T07:02:41;16.90;;;9.90;;
35602;SDS011;21725;50.836;4.368;2022-10-19T07:05:11;19.10;;;8.65;;
35602;SDS011;21725;50.836;4.368;2022-10-19T07:07:46;18.92;;;8.32;;
35602;SDS011;21725;50.836;4.368;2022-10-19T07:10:26;21.27;;;8.48;;
35602;SDS011;21725;50.836;4.368;2022-10-19T07:13:06;19.60;;;8.32;;
35602;SDS011;21725;50.836;4.368;2022-10-19T07:15:41;18.92;;;9.13;;
35602;SDS011;21725;50.836;4.368;2022-10-19T07:18:12;19.67;;;8.95;;
35602;SDS011;21725;50.836;4.368;2022-10-19T07:20:41;17.35;;;9.18;;
35602;SDS011;21725;50.836;4.368;2022-10-19T07:23:07;23.90;;;10.50;;
35602;SDS011;21725;50.836;4.368;2022-10-19T07:25:34;24.75;;;10.25;;
35602;SDS011;21725;50.836;4.368;2022-10-19T07:30:49;20.50;;;9.68;;
35602;SDS011;21725;50.836;4.368;2022-10-19T07:33:24;15.27;;;9.10;;
35602;SDS011;21725;50.836;4.368;2022-10-19T07:35:57;22.40;;;8.85;;
35602;SDS011;21725;50.836;4.368;2022-10-19T07:38:41;17.27;;;8.70;;
35602;SDS011;21725;50.836;4.368;2022-10-19T07:41:34;17.17;;;9.50;;
35602;SDS011;21725;50.836;4.368;2022-10-19T07:44:04;22.30;;;9.70;;
35602;SDS011;21725;50.836;4.368;2022-10-19T07:46:44;18.92;;;9.93;;
35602;SDS011;21725;50.836;4.368;2022-10-19T07:49:22;21.08;;;10.25;;
35602;SDS011;21725;50.836;4.368;2022-10-19T07:52:05;21.10;;;9.18;;
35602;SDS011;21725;50.836;4.368;2022-10-19T07:54:51;19.80;;;9.20;;
35602;SDS011;21725;50.836;4.368;2022-10-19T07:57:27;22.33;;;9.77;;
35602;SDS011;21725;50.836;4.368;2022-10-19T08:00:00;18.33;;;10.35;;
35602;SDS011;21725;50.836;4.368;2022-10-19T08:02:27;20.15;;;9.60;;
35602;SDS011;21725;50.836;4.368;2022-10-19T08:04:52;17.75;;;9.02;;
35602;SDS011;21725;50.836;4.368;2022-10-19T08:07:43;19.80;;;10.15;;
35602;SDS011;21725;50.836;4.368;2022-10-19T08:10:13;17.25;;;8.98;;
35602;SDS011;21725;50.836;4.368;2022-10-19T08:12:40;17.85;;;10.18;;
35602;SDS011;21725;50.836;4.368;2022-10-19T08:15:07;27.02;;;10.15;;
35602;SDS011;21725;50.836;4.368;2022-10-19T08:17:42;19.13;;;9.40;;
35602;SDS011;21725;50.836;4.368;2022-10-19T08:20:13;20.33;;;10.45;;
35602;SDS011;21725;50.836;4.368;2022-10-19T08:22:45;19.10;;;9.20;;
35602;SDS011;21725;50.836;4.368;2022-10-19T08:25:29;20.77;;;9.82;;
35602;SDS011;21725;50.836;4.368;2022-10-19T08:28:08;22.58;;;9.55;;
35602;SDS011;21725;50.836;4.368;2022-10-19T08:30:44;25.42;;;10.90;;
35602;SDS011;21725;50.836;4.368;2022-10-19T08:33:10;20.52;;;9.85;;
35602;SDS011;21725;50.836;4.368;2022-10-19T08:35:39;24.75;;;11.45;;
35602;SDS011;21725;50.836;4.368;2022-10-19T08:38:08;19.27;;;9.73;;
35602;SDS011;21725;50.836;4.368;2022-10-19T08:40:47;19.52;;;9.35;;
35602;SDS011;21725;50.836;4.368;2022-10-19T08:43:32;14.93;;;8.18;;
35602;SDS011;21725;50.836;4.368;2022-10-19T08:49:28;14.77;;;8.60;;
35602;SDS011;21725;50.836;4.368;2022-10-19T08:54:54;21.45;;;9.25;;
35602;SDS011;21725;50.836;4.368;2022-10-19T08:57:38;20.55;;;10.70;;
35602;SDS011;21725;50.836;4.368;2022-10-19T09:08:45;16.40;;;8.50;;
35602;SDS011;21725;50.836;4.368;2022-10-19T09:11:12;21.23;;;8.52;;
35602;SDS011;21725;50.836;4.368;2022-10-19T09:13:44;14.20;;;8.25;;
35602;SDS011;21725;50.836;4.368;2022-10-19T09:16:15;15.05;;;7.38;;
35602;SDS011;21725;50.836;4.368;2022-10-19T09:18:54;20.60;;;8.60;;
35602;SDS011;21725;50.836;4.368;2022-10-19T09:21:43;17.67;;;8.52;;
35602;SDS011;21725;50.836;4.368;2022-10-19T09:24:34;14.65;;;9.13;;
35602;SDS011;21725;50.836;4.368;2022-10-19T09:27:24;19.98;;;8.57;;
35602;SDS011;21725;50.836;4.368;2022-10-19T09:30:00;14.50;;;8.32;;
35602;SDS011;21725;50.836;4.368;2022-10-19T09:32:38;17.98;;;8.57;;
35602;SDS011;21725;50.836;4.368;2022-10-19T09:35:05;15.90;;;8.48;;
35602;SDS011;21725;50.836;4.368;2022-10-19T09:37:48;15.40;;;8.60;;
35602;SDS011;21725;50.836;4.368;2022-10-19T09:43:09;19.88;;;8.68;;
35602;SDS011;21725;50.836;4.368;2022-10-19T09:48:50;13.65;;;7.57;;
35602;SDS011;21725;50.836;4.368;2022-10-19T09:51:19;18.65;;;9.88;;
35602;SDS011;21725;50.836;4.368;2022-10-19T09:53:51;18.30;;;8.95;;
35602;SDS011;21725;50.836;4.368;2022-10-19T09:56:25;16.00;;;9.95;;
35602;SDS011;21725;50.836;4.368;2022-10-19T09:59:19;19.95;;;10.45;;
35602;SDS011;21725;50.836;4.368;2022-10-19T10:05:05;17.27;;;8.45;;
35602;SDS011;21725;50.836;4.368;2022-10-19T10:07:41;17.42;;;9.68;;
35602;SDS011;21725;50.836;4.368;2022-10-19T10:10:19;22.92;;;10.60;;
35602;SDS011;21725;50.836;4.368;2022-10-19T10:13:04;16.08;;;9.27;;
35602;SDS011;21725;50.836;4.368;2022-10-19T10:15:41;17.58;;;10.23;;
35602;SDS011;21725;50.836;4.368;2022-10-19T10:18:19;15.48;;;10.65;;
35602;SDS011;21725;50.836;4.368;2022-10-19T10:23:49;16.65;;;9.15;;
35602;SDS011;21725;50.836;4.368;2022-10-19T10:26:44;17.88;;;10.20;;
35602;SDS011;21725;50.836;4.368;2022-10-19T10:29:25;21.85;;;11.02;;
35602;SDS011;21725;50.836;4.368;2022-10-19T10:34:46;22.70;;;9.73;;
35602;SDS011;21725;50.836;4.368;2022-10-19T10:37:24;16.90;;;10.55;;
35602;SDS011;21725;50.836;4.368;2022-10-19T10:39:57;15.70;;;8.00;;
35602;SDS011;21725;50.836;4.368;2022-10-19T10:42:42;19.27;;;8.60;;
35602;SDS011;21725;50.836;4.368;2022-10-19T10:45:25;19.60;;;9.60;;
35602;SDS011;21725;50.836;4.368;2022-10-19T10:51:17;16.00;;;9.10;;
35602;SDS011;21725;50.836;4.368;2022-10-19T10:53:48;22.23;;;11.38;;
35602;SDS011;21725;50.836;4.368;2022-10-19T10:56:28;16.80;;;8.77;;
35602;SDS011;21725;50.836;4.368;2022-10-19T10:59:20;22.65;;;9.18;;
35602;SDS011;21725;50.836;4.368;2022-10-19T11:02:02;23.05;;;9.50;;
35602;SDS011;21725;50.836;4.368;2022-10-19T11:04:40;22.52;;;9.52;;
35602;SDS011;21725;50.836;4.368;2022-10-19T11:07:15;12.88;;;8.57;;
35602;SDS011;21725;50.836;4.368;2022-10-19T11:09:57;21.52;;;9.90;;
35602;SDS011;21725;50.836;4.368;2022-10-19T11:12:37;20.52;;;9.82;;
35602;SDS011;21725;50.836;4.368;2022-10-19T11:18:05;18.23;;;8.85;;
35602;SDS011;21725;50.836;4.368;2022-10-19T11:20:47;15.85;;;10.07;;
35602;SDS011;21725;50.836;4.368;2022-10-19T11:26:52;17.85;;;9.57;;
35602;SDS011;21725;50.836;4.368;2022-10-19T11:32:24;18.10;;;10.35;;
35602;SDS011;21725;50.836;4.368;2022-10-19T11:53:15;25.45;;;10.25;;
35602;SDS011;21725;50.836;4.368;2022-10-19T11:58:52;20.83;;;9.35;;
35602;SDS011;21725;50.836;4.368;2022-10-19T12:09:37;20.08;;;10.23;;
35602;SDS011;21725;50.836;4.368;2022-10-19T12:12:28;23.50;;;10.57;;
35602;SDS011;21725;50.836;4.368;2022-10-19T12:15:04;23.23;;;10.05;;
35602;SDS011;21725;50.836;4.368;2022-10-19T12:17:48;23.45;;;9.00;;
35602;SDS011;21725;50.836;4.368;2022-10-19T12:22:54;21.52;;;10.55;;
35602;SDS011;21725;50.836;4.368;2022-10-19T12:25:34;21.15;;;9.50;;
35602;SDS011;21725;50.836;4.368;2022-10-19T12:28:17;17.17;;;8.87;;
35602;SDS011;21725;50.836;4.368;2022-10-19T12:30:53;13.23;;;8.73;;
35602;SDS011;21725;50.836;4.368;2022-10-19T12:38:40;18.50;;;10.85;;
35602;SDS011;21725;50.836;4.368;2022-10-19T12:47:08;17.83;;;9.93;;
35602;SDS011;21725;50.836;4.368;2022-10-19T12:49:47;15.20;;;8.75;;
35602;SDS011;21725;50.836;4.368;2022-10-19T12:52:15;18.65;;;9.82;;
35602;SDS011;21725;50.836;4.368;2022-10-19T12:55:09;15.48;;;8.80;;
35602;SDS011;21725;50.836;4.368;2022-10-19T12:57:38;14.43;;;8.65;;
35602;SDS011;21725;50.836;4.368;2022-10-19T13:00:24;16.75;;;9.10;;
35602;SDS011;21725;50.836;4.368;2022-10-19T13:03:00;21.38;;;10.52;;
35602;SDS011;21725;50.836;4.368;2022-10-19T13:06:01;16.30;;;8.85;;
35602;SDS011;21725;50.836;4.368;2022-10-19T13:08:53;13.40;;;8.23;;
35602;SDS011;21725;50.836;4.368;2022-10-19T13:11:29;15.70;;;8.15;;
35602;SDS011;21725;50.836;4.368;2022-10-19T13:14:03;16.63;;;8.57;;
35602;SDS011;21725;50.836;4.368;2022-10-19T13:17:02;25.50;;;10.43;;
35602;SDS011;21725;50.836;4.368;2022-10-19T13:19:31;16.60;;;7.93;;
35602;SDS011;21725;50.836;4.368;2022-10-19T13:24:33;16.77;;;8.30;;
35602;SDS011;21725;50.836;4.368;2022-10-19T13:30:01;12.82;;;8.10;;
35602;SDS011;21725;50.836;4.368;2022-10-19T13:35:48;22.77;;;13.63;;
35602;SDS011;21725;50.836;4.368;2022-10-19T13:49:26;14.15;;;6.68;;
35602;SDS011;21725;50.836;4.368;2022-10-19T13:57:53;13.32;;;7.32;;
35602;SDS011;21725;50.836;4.368;2022-10-19T14:03:24;15.90;;;7.47;;
35602;SDS011;21725;50.836;4.368;2022-10-19T14:11:23;15.50;;;8.25;;
35602;SDS011;21725;50.836;4.368;2022-10-19T14:14:10;17.20;;;7.45;;
35602;SDS011;21725;50.836;4.368;2022-10-19T14:19:40;11.00;;;6.78;;
35602;SDS011;21725;50.836;4.368;2022-10-19T14:22:29;16.23;;;7.70;;
35602;SDS011;21725;50.836;4.368;2022-10-19T14:27:46;10.73;;;6.38;;
35602;SDS011;21725;50.836;4.368;2022-10-19T14:30:34;13.70;;;7.25;;
35602;SDS011;21725;50.836;4.368;2022-10-19T14:33:10;15.98;;;6.88;;
35602;SDS011;21725;50.836;4.368;2022-10-19T14:35:49;15.45;;;8.18;;
35602;SDS011;21725;50.836;4.368;2022-10-19T14:38:41;15.27;;;7.65;;
35602;SDS011;21725;50.836;4.368;2022-10-19T14:41:28;14.90;;;8.52;;
35602;SDS011;21725;50.836;4.368;2022-10-19T14:43:59;12.85;;;7.97;;
35602;SDS011;21725;50.836;4.368;2022-10-19T14:46:31;15.30;;;8.93;;
35602;SDS011;21725;50.836;4.368;2022-10-19T14:49:04;17.98;;;8.20;;
35602;SDS011;21725;50.836;4.368;2022-10-19T14:51:54;18.45;;;9.10;;
35602;SDS011;21725;50.836;4.368;2022-10-19T14:54:33;13.80;;;7.85;;
35602;SDS011;21725;50.836;4.368;2022-10-19T14:57:07;13.80;;;8.27;;
35602;SDS011;21725;50.836;4.368;2022-10-19T15:00:19;16.58;;;9.68;;
35602;SDS011;21725;50.836;4.368;2022-10-19T15:03:00;18.63;;;9.15;;
35602;SDS011;21725;50.836;4.368;2022-10-19T15:05:45;13.77;;;8.35;;
35602;SDS011;21725;50.836;4.368;2022-10-19T15:13:52;19.63;;;11.02;;
35602;SDS011;21725;50.836;4.368;2022-10-19T15:16:54;28.85;;;10.52;;
35602;SDS011;21725;50.836;4.368;2022-10-19T15:22:10;15.88;;;10.43;;
35602;SDS011;21725;50.836;4.368;2022-10-19T15:24:59;19.55;;;11.43;;
35602;SDS011;21725;50.836;4.368;2022-10-19T15:27:31;23.75;;;12.27;;
35602;SDS011;21725;50.836;4.368;2022-10-19T15:32:42;16.70;;;10.57;;
35602;SDS011;21725;50.836;4.368;2022-10-19T15:35:28;16.20;;;10.00;;
35602;SDS011;21725;50.836;4.368;2022-10-19T15:38:23;22.83;;;12.65;;
35602;SDS011;21725;50.836;4.368;2022-10-19T15:41:13;18.77;;;11.68;;
35602;SDS011;21725;50.836;4.368;2022-10-19T15:44:05;18.15;;;11.57;;
35602;SDS011;21725;50.836;4.368;2022-10-19T15:47:02;21.27;;;11.55;;
35602;SDS011;21725;50.836;4.368;2022-10-19T15:52:20;20.83;;;12.30;;
35602;SDS011;21725;50.836;4.368;2022-10-19T15:55:00;19.40;;;11.25;;
35602;SDS011;21725;50.836;4.368;2022-10-19T15:57:33;20.05;;;13.35;;
35602;SDS011;21725;50.836;4.368;2022-10-19T16:00:13;19.17;;;11.75;;
35602;SDS011;21725;50.836;4.368;2022-10-19T16:02:56;20.35;;;11.23;;
35602;SDS011;21725;50.836;4.368;2022-10-19T16:05:29;18.70;;;12.63;;
35602;SDS011;21725;50.836;4.368;2022-10-19T16:08:02;17.23;;;12.32;;
35602;SDS011;21725;50.836;4.368;2022-10-19T16:10:50;21.77;;;14.50;;
35602;SDS011;21725;50.836;4.368;2022-10-19T16:13:24;25.90;;;15.50;;
35602;SDS011;21725;50.836;4.368;2022-10-19T16:15:50;20.08;;;14.07;;
35602;SDS011;21725;50.836;4.368;2022-10-19T16:18:45;22.10;;;13.55;;
35602;SDS011;21725;50.836;4.368;2022-10-19T16:21:17;25.30;;;14.80;;
35602;SDS011;21725;50.836;4.368;2022-10-19T16:23:45;19.15;;;13.00;;
35602;SDS011;21725;50.836;4.368;2022-10-19T16:26:19;21.67;;;14.25;;
35602;SDS011;21725;50.836;4.368;2022-10-19T16:28:52;25.48;;;14.30;;
35602;SDS011;21725;50.836;4.368;2022-10-19T16:31:50;24.83;;;15.38;;
35602;SDS011;21725;50.836;4.368;2022-10-19T16:34:20;24.35;;;15.15;;
35602;SDS011;21725;50.836;4.368;2022-10-19T16:37:17;24.63;;;15.57;;
35602;SDS011;21725;50.836;4.368;2022-10-19T16:39:51;21.83;;;15.90;;
35602;SDS011;21725;50.836;4.368;2022-10-19T16:42:34;19.55;;;14.15;;
35602;SDS011;21725;50.836;4.368;2022-10-19T16:45:14;22.25;;;14.57;;
35602;SDS011;21725;50.836;4.368;2022-10-19T16:47:42;21.20;;;14.93;;
35602;SDS011;21725;50.836;4.368;2022-10-19T16:50:09;27.58;;;15.45;;
35602;SDS011;21725;50.836;4.368;2022-10-19T16:52:35;19.55;;;14.95;;
35602;SDS011;21725;50.836;4.368;2022-10-19T16:55:10;22.35;;;16.70;;
35602;SDS011;21725;50.836;4.368;2022-10-19T16:57:48;24.85;;;16.20;;
35602;SDS011;21725;50.836;4.368;2022-10-19T17:00:19;20.77;;;15.00;;
35602;SDS011;21725;50.836;4.368;2022-10-19T17:02:48;21.25;;;14.85;;
35602;SDS011;21725;50.836;4.368;2022-10-19T17:05:26;22.13;;;13.98;;
35602;SDS011;21725;50.836;4.368;2022-10-19T17:08:00;24.52;;;16.08;;
35602;SDS011;21725;50.836;4.368;2022-10-19T17:10:51;22.05;;;15.43;;
35602;SDS011;21725;50.836;4.368;2022-10-19T17:13:19;22.13;;;16.42;;
35602;SDS011;21725;50.836;4.368;2022-10-19T17:15:50;19.23;;;13.93;;
35602;SDS011;21725;50.836;4.368;2022-10-19T17:18:46;18.27;;;13.80;;
35602;SDS011;21725;50.836;4.368;2022-10-19T17:21:22;18.60;;;14.90;;
35602;SDS011;21725;50.836;4.368;2022-10-19T17:24:01;23.30;;;15.52;;
35602;SDS011;21725;50.836;4.368;2022-10-19T17:26:48;27.30;;;16.60;;
35602;SDS011;21725;50.836;4.368;2022-10-19T17:29:27;33.42;;;17.65;;
35602;SDS011;21725;50.836;4.368;2022-10-19T17:32:02;20.50;;;14.23;;
35602;SDS011;21725;50.836;4.368;2022-10-19T17:34:39;22.80;;;14.48;;
35602;SDS011;21725;50.836;4.368;2022-10-19T17:37:12;22.52;;;14.50;;
35602;SDS011;21725;50.836;4.368;2022-10-19T17:39:41;21.35;;;15.13;;
35602;SDS011;21725;50.836;4.368;2022-10-19T17:42:17;23.35;;;16.17;;
35602;SDS011;21725;50.836;4.368;2022-10-19T17:45:06;21.45;;;15.00;;
35602;SDS011;21725;50.836;4.368;2022-10-19T17:47:37;26.20;;;16.70;;
35602;SDS011;21725;50.836;4.368;2022-10-19T17:50:15;20.95;;;15.65;;
35602;SDS011;21725;50.836;4.368;2022-10-19T17:53:23;24.92;;;15.82;;
35602;SDS011;21725;50.836;4.368;2022-10-19T17:56:27;19.13;;;13.37;;
35602;SDS011;21725;50.836;4.368;2022-10-19T17:59:14;20.58;;;15.75;;
35602;SDS011;21725;50.836;4.368;2022-10-19T18:07:37;30.73;;;16.33;;
35602;SDS011;21725;50.836;4.368;2022-10-19T18:10:15;22.63;;;16.23;;
35602;SDS011;21725;50.836;4.368;2022-10-19T18:12:49;21.13;;;14.05;;
35602;SDS011;21725;50.836;4.368;2022-10-19T18:15:31;22.15;;;14.75;;
35602;SDS011;21725;50.836;4.368;2022-10-19T18:18:09;22.13;;;13.73;;
35602;SDS011;21725;50.836;4.368;2022-10-19T18:20:37;21.95;;;14.68;;
35602;SDS011;21725;50.836;4.368;2022-10-19T18:23:06;24.10;;;16.95;;
35602;SDS011;21725;50.836;4.368;2022-10-19T18:25:46;23.88;;;14.35;;